Feasterville Trevose, Pennsylvania
Current Conditions -  °F | °C
As of 3:21 PM on Wednesday 26 Nov 2014 (Local Time) from KPNE Reporting Station
Light Rain Light Rain  
Wind Chill: 26°   Ceiling: 1000
Heat Index: 36°   Visibility: 7mi
Dew Point: 31°   Wind: 16mph
Humidity: 82%   Direction: 10°N
Pressure: 29.84"   Gusts: NA
Location:  40.15°N, 74.98°W
Report Text: KPNE 262021Z 01014KT 7SM -RA BKN010 OVC070 02/M01 A2984 RMK AO2 PRESFR P0003 T00221006
Loading
Personal Weather Stations






























Interactive Weather Map New forecast layout! Learn more

10-Day Weather Forecast

Advertisements
Track Severe Weather on mobile